TimeCST,TemperatureF,Dew PointF,Humidity,Sea Level PressureIn,VisibilityMPH,Wind Direction,Wind SpeedMPH,Gust SpeedMPH,PrecipitationIn,Events,Conditions,WindDirDegrees,DateUTC
12:15 AM,52.7,33.4,48,30.26,10.0,NNW,12.7,20.7,N/A,,Clear,340,2013-03-06 06:15:00
12:35 AM,51.3,33.4,51,30.26,10.0,NNW,10.4,-,N/A,,Clear,340,2013-03-06 06:35:00
12:55 AM,50.2,33.1,52,30.27,10.0,NNW,8.1,-,N/A,,Clear,340,2013-03-06 06:55:00
1:15 AM,50.0,32.0,50,30.27,10.0,NNW,10.4,-,N/A,,Clear,340,2013-03-06 07:15:00
1:35 AM,49.1,31.8,51,30.27,10.0,NNW,11.5,-,N/A,,Clear,340,2013-03-06 07:35:00
1:55 AM,47.8,31.8,54,30.27,10.0,North,10.4,-,N/A,,Clear,350,2013-03-06 07:55:00
2:15 AM,46.2,32.0,58,30.28,10.0,NNW,8.1,-,N/A,,Clear,340,2013-03-06 08:15:00
2:35 AM,44.2,32.0,62,30.27,10.0,NNW,8.1,-,N/A,,Clear,340,2013-03-06 08:35:00
2:55 AM,43.7,32.0,63,30.27,10.0,NNW,8.1,-,N/A,,Clear,340,2013-03-06 08:55:00
3:15 AM,43.0,32.0,65,30.28,10.0,NNW,6.9,-,N/A,,Clear,340,2013-03-06 09:15:00
3:55 AM,43.0,32.0,65,30.30,10.0,NNW,6.9,-,N/A,,Clear,330,2013-03-06 09:55:00
4:15 AM,41.2,32.0,70,30.30,10.0,NNW,5.8,-,N/A,,Clear,340,2013-03-06 10:15:00
4:35 AM,41.2,32.0,70,30.31,10.0,North,-9999.0,-,N/A,,Clear,0,2013-03-06 10:35:00
4:55 AM,40.6,31.6,70,30.32,10.0,North,-9999.0,-,N/A,,Clear,0,2013-03-06 10:55:00
5:15 AM,39.9,32.0,73,30.33,10.0,North,-9999.0,-,N/A,,Clear,0,2013-03-06 11:15:00
5:35 AM,40.1,31.3,71,30.34,10.0,North,-9999.0,-,N/A,,Clear,0,2013-03-06 11:35:00
5:55 AM,39.7,31.6,73,30.34,10.0,North,-9999.0,-,N/A,,Clear,0,2013-03-06 11:55:00
6:15 AM,39.2,31.6,74,30.34,10.0,North,-9999.0,-,N/A,,Clear,0,2013-03-06 12:15:00
6:35 AM,40.1,30.6,69,30.35,10.0,North,-9999.0,-,N/A,,Clear,0,2013-03-06 12:35:00
6:55 AM,39.6,31.8,74,30.35,10.0,North,-9999.0,-,N/A,,Clear,0,2013-03-06 12:55:00
7:15 AM,41.9,33.4,72,30.36,10.0,NNW,4.6,-,N/A,,Clear,340,2013-03-06 13:15:00
7:35 AM,45.0,32.7,62,30.37,10.0,North,-9999.0,-,N/A,,Clear,0,2013-03-06 13:35:00
7:55 AM,46.9,32.9,58,30.38,10.0,North,6.9,-,N/A,,Clear,350,2013-03-06 13:55:00
8:15 AM,49.1,31.5,51,30.38,10.0,North,12.7,-,N/A,,Clear,360,2013-03-06 14:15:00
8:35 AM,50.2,30.9,48,30.37,10.0,North,13.8,-,N/A,,Clear,360,2013-03-06 14:35:00
8:55 AM,51.6,29.7,43,30.38,10.0,North,12.7,16.1,N/A,,Clear,360,2013-03-06 14:55:00
9:15 AM,52.2,28.4,40,30.37,10.0,NNE,12.7,-,N/A,,Clear,20,2013-03-06 15:15:00
9:35 AM,53.6,29.3,39,30.37,10.0,NNE,10.4,-,N/A,,Clear,20,2013-03-06 15:35:00
9:55 AM,54.9,29.5,38,30.36,10.0,North,10.4,-,N/A,,Clear,360,2013-03-06 15:55:00
10:15 AM,55.0,30.0,38,30.36,10.0,NNE,8.1,-,N/A,,Clear,30,2013-03-06 16:15:00
10:35 AM,56.8,31.1,38,30.36,10.0,NNW,8.1,-,N/A,,Clear,340,2013-03-06 16:35:00
10:55 AM,56.8,29.5,35,30.36,10.0,North,-9999.0,-,N/A,,Clear,0,2013-03-06 16:55:00
11:15 AM,58.6,31.1,35,30.35,10.0,North,8.1,-,N/A,,Clear,360,2013-03-06 17:15:00
11:35 AM,59.2,30.2,33,30.35,10.0,North,8.1,-,N/A,,Clear,10,2013-03-06 17:35:00
11:55 AM,60.4,30.2,32,30.34,10.0,North,8.1,-,N/A,,Clear,350,2013-03-06 17:55:00
12:15 PM,61.7,30.7,31,30.33,10.0,NW,9.2,-,N/A,,Clear,320,2013-03-06 18:15:00
12:55 PM,63.1,31.8,31,30.30,10.0,North,8.1,16.1,N/A,,Clear,360,2013-03-06 18:55:00
1:15 PM,63.7,30.9,29,30.29,10.0,NW,13.8,18.4,N/A,,Clear,320,2013-03-06 19:15:00
1:35 PM,64.4,32.7,31,30.28,10.0,NNW,9.2,16.1,N/A,,Clear,330,2013-03-06 19:35:00
1:55 PM,64.2,32.4,30,30.28,10.0,NNW,8.1,-,N/A,,Clear,340,2013-03-06 19:55:00
2:15 PM,64.2,32.2,30,30.27,10.0,North,12.7,17.3,N/A,,Clear,350,2013-03-06 20:15:00
2:35 PM,64.8,32.5,30,30.26,10.0,North,13.8,-,N/A,,Clear,360,2013-03-06 20:35:00
2:55 PM,64.2,32.4,30,30.25,10.0,NNW,13.8,21.9,N/A,,Clear,330,2013-03-06 20:55:00
3:15 PM,64.4,31.6,29,30.26,10.0,NNW,13.8,17.3,N/A,,Clear,340,2013-03-06 21:15:00
3:35 PM,64.0,31.6,30,30.25,10.0,NNW,13.8,-,N/A,,Clear,340,2013-03-06 21:35:00
3:55 PM,63.7,31.6,30,30.26,10.0,NNW,8.1,-,N/A,,Clear,330,2013-03-06 21:55:00
4:15 PM,63.7,32.0,31,30.25,10.0,NNW,10.4,-,N/A,,Clear,330,2013-03-06 22:15:00
4:35 PM,63.5,31.6,30,30.25,10.0,NNW,9.2,-,N/A,,Clear,330,2013-03-06 22:35:00
4:55 PM,62.6,31.8,32,30.25,10.0,North,9.2,-,N/A,,Clear,350,2013-03-06 22:55:00
5:15 PM,60.3,32.5,35,30.25,10.0,North,5.8,-,N/A,,Clear,350,2013-03-06 23:15:00
5:35 PM,57.9,33.3,39,30.25,10.0,North,5.8,-,N/A,,Clear,350,2013-03-06 23:35:00
5:55 PM,57.0,33.8,42,30.25,10.0,Calm,Calm,-,N/A,,Clear,0,2013-03-06 23:55:00
6:15 PM,56.5,33.1,41,30.26,10.0,Calm,Calm,-,N/A,,Clear,0,2013-03-07 00:15:00
6:35 PM,54.1,34.7,48,30.26,10.0,Calm,Calm,-,N/A,,Clear,0,2013-03-07 00:35:00
6:55 PM,54.5,33.3,45,30.26,10.0,Calm,Calm,-,N/A,,Clear,0,2013-03-07 00:55:00
7:15 PM,51.8,36.0,55,30.27,10.0,Calm,Calm,-,N/A,,Clear,0,2013-03-07 01:15:00
7:35 PM,51.3,36.5,57,30.27,10.0,Calm,Calm,-,N/A,,Clear,0,2013-03-07 01:35:00
7:55 PM,49.6,40.3,70,30.28,10.0,Calm,Calm,-,N/A,,Clear,0,2013-03-07 01:55:00
8:15 PM,48.2,40.6,75,30.27,10.0,Calm,Calm,-,N/A,,Clear,0,2013-03-07 02:15:00
8:35 PM,49.1,36.5,62,30.27,10.0,Calm,Calm,-,N/A,,Clear,0,2013-03-07 02:35:00
8:55 PM,46.8,36.1,67,30.27,10.0,Calm,Calm,-,N/A,,Clear,0,2013-03-07 02:55:00
9:15 PM,46.6,36.5,68,30.28,10.0,Calm,Calm,-,N/A,,Clear,0,2013-03-07 03:15:00
9:35 PM,45.3,37.4,74,30.28,10.0,Calm,Calm,-,N/A,,Clear,0,2013-03-07 03:35:00
9:55 PM,44.8,38.3,78,30.27,10.0,Calm,Calm,-,N/A,,Clear,0,2013-03-07 03:55:00
10:15 PM,43.5,38.5,82,30.28,10.0,Calm,Calm,-,N/A,,Clear,0,2013-03-07 04:15:00
10:35 PM,43.5,40.3,88,30.27,10.0,NE,3.5,-,N/A,,Clear,50,2013-03-07 04:35:00
10:55 PM,42.3,39.6,90,30.26,10.0,NE,3.5,-,N/A,,Clear,40,2013-03-07 04:55:00
11:15 PM,42.6,39.0,87,30.26,10.0,NE,3.5,-,N/A,,Clear,40,2013-03-07 05:15:00
11:35 PM,42.4,39.4,89,30.26,10.0,NE,3.5,-,N/A,,Clear,40,2013-03-07 05:35:00
11:55 PM,44.8,36.3,72,30.25,10.0,North,-9999.0,-,N/A,,Clear,0,2013-03-07 05:55:00